sensor_id;sensor_type;location;lat;lon;timestamp;P1;durP1;ratioP1;P2;durP2;ratioP2
33327;SDS011;19692;52.998;9.116;2023-03-11T00:00:23;17.27;;;10.53;;
33327;SDS011;19692;52.998;9.116;2023-03-11T00:02:51;15.03;;;10.67;;
33327;SDS011;19692;52.998;9.116;2023-03-11T00:05:24;13.07;;;10.37;;
33327;SDS011;19692;52.998;9.116;2023-03-11T00:07:53;13.17;;;9.50;;
33327;SDS011;19692;52.998;9.116;2023-03-11T00:10:21;13.33;;;10.60;;
33327;SDS011;19692;52.998;9.116;2023-03-11T00:12:51;14.23;;;9.53;;
33327;SDS011;19692;52.998;9.116;2023-03-11T00:15:17;13.03;;;9.07;;
33327;SDS011;19692;52.998;9.116;2023-03-11T00:17:43;14.87;;;9.03;;
33327;SDS011;19692;52.998;9.116;2023-03-11T00:20:19;12.30;;;8.87;;
33327;SDS011;19692;52.998;9.116;2023-03-11T00:22:49;13.17;;;9.00;;
33327;SDS011;19692;52.998;9.116;2023-03-11T00:25:16;13.67;;;8.63;;
33327;SDS011;19692;52.998;9.116;2023-03-11T00:27:42;13.07;;;8.17;;
33327;SDS011;19692;52.998;9.116;2023-03-11T00:30:08;12.80;;;8.07;;
33327;SDS011;19692;52.998;9.116;2023-03-11T00:32:36;12.77;;;8.07;;
33327;SDS011;19692;52.998;9.116;2023-03-11T00:35:03;12.93;;;8.37;;
33327;SDS011;19692;52.998;9.116;2023-03-11T00:37:30;13.40;;;7.60;;
33327;SDS011;19692;52.998;9.116;2023-03-11T00:39:55;11.63;;;7.30;;
33327;SDS011;19692;52.998;9.116;2023-03-11T00:42:21;15.00;;;6.93;;
33327;SDS011;19692;52.998;9.116;2023-03-11T00:44:47;12.37;;;6.80;;
33327;SDS011;19692;52.998;9.116;2023-03-11T00:47:13;7.50;;;5.57;;
33327;SDS011;19692;52.998;9.116;2023-03-11T00:49:38;6.87;;;4.10;;
33327;SDS011;19692;52.998;9.116;2023-03-11T00:52:04;7.87;;;5.10;;
33327;SDS011;19692;52.998;9.116;2023-03-11T00:54:31;7.83;;;4.33;;
33327;SDS011;19692;52.998;9.116;2023-03-11T00:56:56;5.93;;;3.57;;
33327;SDS011;19692;52.998;9.116;2023-03-11T00:59:22;7.43;;;4.60;;
33327;SDS011;19692;52.998;9.116;2023-03-11T01:01:48;9.47;;;5.57;;
33327;SDS011;19692;52.998;9.116;2023-03-11T01:04:15;6.60;;;5.03;;
33327;SDS011;19692;52.998;9.116;2023-03-11T01:06:41;8.43;;;4.70;;
33327;SDS011;19692;52.998;9.116;2023-03-11T01:09:08;10.83;;;5.43;;
33327;SDS011;19692;52.998;9.116;2023-03-11T01:11:34;8.40;;;4.43;;
33327;SDS011;19692;52.998;9.116;2023-03-11T01:13:59;6.87;;;5.17;;
33327;SDS011;19692;52.998;9.116;2023-03-11T01:16:26;7.03;;;5.30;;
33327;SDS011;19692;52.998;9.116;2023-03-11T01:18:51;10.73;;;5.50;;
33327;SDS011;19692;52.998;9.116;2023-03-11T01:21:17;6.37;;;5.10;;
33327;SDS011;19692;52.998;9.116;2023-03-11T01:23:43;7.37;;;4.87;;
33327;SDS011;19692;52.998;9.116;2023-03-11T01:26:09;9.17;;;4.93;;
33327;SDS011;19692;52.998;9.116;2023-03-11T01:28:34;7.00;;;4.43;;
33327;SDS011;19692;52.998;9.116;2023-03-11T01:31:00;7.90;;;4.50;;
33327;SDS011;19692;52.998;9.116;2023-03-11T01:33:26;11.17;;;5.13;;
33327;SDS011;19692;52.998;9.116;2023-03-11T01:35:53;6.70;;;4.87;;
33327;SDS011;19692;52.998;9.116;2023-03-11T01:38:19;5.70;;;4.70;;
33327;SDS011;19692;52.998;9.116;2023-03-11T01:40:46;7.57;;;4.40;;
33327;SDS011;19692;52.998;9.116;2023-03-11T01:47:23;6.73;;;3.90;;
33327;SDS011;19692;52.998;9.116;2023-03-11T01:49:04;8.10;;;3.33;;
33327;SDS011;19692;52.998;9.116;2023-03-11T01:51:37;6.73;;;3.90;;
33327;SDS011;19692;52.998;9.116;2023-03-11T01:54:10;7.67;;;4.43;;
33327;SDS011;19692;52.998;9.116;2023-03-11T01:56:40;6.00;;;4.00;;
33327;SDS011;19692;52.998;9.116;2023-03-11T01:59:07;6.23;;;3.13;;
33327;SDS011;19692;52.998;9.116;2023-03-11T02:01:37;3.53;;;2.83;;
33327;SDS011;19692;52.998;9.116;2023-03-11T02:04:12;3.33;;;1.97;;
33327;SDS011;19692;52.998;9.116;2023-03-11T02:06:39;5.90;;;3.13;;
33327;SDS011;19692;52.998;9.116;2023-03-11T02:09:05;7.83;;;3.30;;
33327;SDS011;19692;52.998;9.116;2023-03-11T02:11:30;8.27;;;4.03;;
33327;SDS011;19692;52.998;9.116;2023-03-11T02:13:57;6.70;;;3.47;;
33327;SDS011;19692;52.998;9.116;2023-03-11T02:16:27;4.13;;;2.80;;
33327;SDS011;19692;52.998;9.116;2023-03-11T02:18:53;4.10;;;3.27;;
33327;SDS011;19692;52.998;9.116;2023-03-11T02:21:24;4.13;;;3.03;;
33327;SDS011;19692;52.998;9.116;2023-03-11T02:26:36;4.40;;;3.10;;
33327;SDS011;19692;52.998;9.116;2023-03-11T02:29:26;5.67;;;3.40;;
33327;SDS011;19692;52.998;9.116;2023-03-11T02:31:52;3.50;;;3.03;;
33327;SDS011;19692;52.998;9.116;2023-03-11T02:34:25;3.97;;;3.27;;
33327;SDS011;19692;52.998;9.116;2023-03-11T02:36:55;9.57;;;3.77;;
33327;SDS011;19692;52.998;9.116;2023-03-11T02:42:04;8.07;;;4.13;;
33327;SDS011;19692;52.998;9.116;2023-03-11T02:44:36;4.23;;;3.40;;
33327;SDS011;19692;52.998;9.116;2023-03-11T02:47:03;4.47;;;3.27;;
33327;SDS011;19692;52.998;9.116;2023-03-11T02:49:30;5.87;;;3.63;;
33327;SDS011;19692;52.998;9.116;2023-03-11T02:51:56;4.33;;;3.37;;
33327;SDS011;19692;52.998;9.116;2023-03-11T02:54:22;4.70;;;4.20;;
33327;SDS011;19692;52.998;9.116;2023-03-11T02:56:48;6.70;;;3.00;;
33327;SDS011;19692;52.998;9.116;2023-03-11T02:59:13;5.43;;;2.87;;
33327;SDS011;19692;52.998;9.116;2023-03-11T03:01:39;5.07;;;3.30;;
33327;SDS011;19692;52.998;9.116;2023-03-11T03:04:05;6.33;;;2.90;;
33327;SDS011;19692;52.998;9.116;2023-03-11T03:06:31;2.20;;;2.00;;
33327;SDS011;19692;52.998;9.116;2023-03-11T03:08:56;4.57;;;2.20;;
33327;SDS011;19692;52.998;9.116;2023-03-11T03:11:22;2.53;;;2.27;;
33327;SDS011;19692;52.998;9.116;2023-03-11T03:13:48;3.10;;;1.97;;
33327;SDS011;19692;52.998;9.116;2023-03-11T03:16:14;1.87;;;1.77;;
33327;SDS011;19692;52.998;9.116;2023-03-11T03:18:39;1.83;;;1.73;;
33327;SDS011;19692;52.998;9.116;2023-03-11T03:21:05;3.73;;;2.20;;
33327;SDS011;19692;52.998;9.116;2023-03-11T03:23:31;1.77;;;1.63;;
33327;SDS011;19692;52.998;9.116;2023-03-11T03:25:59;3.27;;;2.20;;
33327;SDS011;19692;52.998;9.116;2023-03-11T03:28:26;2.93;;;1.93;;
33327;SDS011;19692;52.998;9.116;2023-03-11T03:30:51;4.43;;;2.23;;
33327;SDS011;19692;52.998;9.116;2023-03-11T03:33:17;3.40;;;2.40;;
33327;SDS011;19692;52.998;9.116;2023-03-11T03:35:43;4.97;;;2.40;;
33327;SDS011;19692;52.998;9.116;2023-03-11T03:38:10;3.57;;;2.30;;
33327;SDS011;19692;52.998;9.116;2023-03-11T03:40:36;3.57;;;2.97;;
33327;SDS011;19692;52.998;9.116;2023-03-11T03:43:03;4.93;;;2.50;;
33327;SDS011;19692;52.998;9.116;2023-03-11T03:45:29;5.03;;;3.20;;
33327;SDS011;19692;52.998;9.116;2023-03-11T03:47:55;5.30;;;3.17;;
33327;SDS011;19692;52.998;9.116;2023-03-11T03:50:20;4.60;;;3.53;;
33327;SDS011;19692;52.998;9.116;2023-03-11T03:52:46;6.20;;;3.73;;
33327;SDS011;19692;52.998;9.116;2023-03-11T03:55:12;6.63;;;4.23;;
33327;SDS011;19692;52.998;9.116;2023-03-11T03:57:38;12.90;;;4.60;;
33327;SDS011;19692;52.998;9.116;2023-03-11T04:00:04;16.90;;;4.73;;
33327;SDS011;19692;52.998;9.116;2023-03-11T04:02:33;8.23;;;4.13;;
33327;SDS011;19692;52.998;9.116;2023-03-11T04:04:59;7.87;;;3.77;;
33327;SDS011;19692;52.998;9.116;2023-03-11T04:07:24;11.03;;;3.90;;
33327;SDS011;19692;52.998;9.116;2023-03-11T04:09:50;12.47;;;3.47;;
33327;SDS011;19692;52.998;9.116;2023-03-11T04:12:16;10.33;;;3.60;;
33327;SDS011;19692;52.998;9.116;2023-03-11T04:14:42;9.10;;;3.73;;
33327;SDS011;19692;52.998;9.116;2023-03-11T04:17:11;9.00;;;3.87;;
33327;SDS011;19692;52.998;9.116;2023-03-11T04:19:38;9.60;;;3.77;;
33327;SDS011;19692;52.998;9.116;2023-03-11T04:22:04;12.27;;;3.60;;
33327;SDS011;19692;52.998;9.116;2023-03-11T04:24:30;14.10;;;4.27;;
33327;SDS011;19692;52.998;9.116;2023-03-11T04:26:56;10.30;;;4.20;;
33327;SDS011;19692;52.998;9.116;2023-03-11T04:29:22;7.20;;;4.37;;
33327;SDS011;19692;52.998;9.116;2023-03-11T04:31:48;10.47;;;4.30;;
33327;SDS011;19692;52.998;9.116;2023-03-11T04:34:15;11.53;;;4.80;;
33327;SDS011;19692;52.998;9.116;2023-03-11T04:36:40;16.43;;;6.87;;
33327;SDS011;19692;52.998;9.116;2023-03-11T04:39:06;13.83;;;5.77;;
33327;SDS011;19692;52.998;9.116;2023-03-11T04:41:32;13.23;;;6.80;;
33327;SDS011;19692;52.998;9.116;2023-03-11T04:43:58;14.93;;;6.17;;
33327;SDS011;19692;52.998;9.116;2023-03-11T04:46:24;14.33;;;5.60;;
33327;SDS011;19692;52.998;9.116;2023-03-11T04:48:50;11.10;;;4.90;;
33327;SDS011;19692;52.998;9.116;2023-03-11T04:51:16;15.07;;;4.73;;
33327;SDS011;19692;52.998;9.116;2023-03-11T04:53:42;13.17;;;4.90;;
33327;SDS011;19692;52.998;9.116;2023-03-11T04:56:08;12.70;;;4.60;;
33327;SDS011;19692;52.998;9.116;2023-03-11T04:58:34;16.90;;;4.80;;
33327;SDS011;19692;52.998;9.116;2023-03-11T05:00:59;13.33;;;5.80;;
33327;SDS011;19692;52.998;9.116;2023-03-11T05:03:25;10.40;;;5.30;;
33327;SDS011;19692;52.998;9.116;2023-03-11T05:05:51;13.53;;;4.90;;
33327;SDS011;19692;52.998;9.116;2023-03-11T05:08:20;12.83;;;5.60;;
33327;SDS011;19692;52.998;9.116;2023-03-11T05:10:47;12.43;;;5.20;;
33327;SDS011;19692;52.998;9.116;2023-03-11T05:13:15;11.07;;;4.17;;
33327;SDS011;19692;52.998;9.116;2023-03-11T05:15:40;8.37;;;4.10;;
33327;SDS011;19692;52.998;9.116;2023-03-11T05:18:06;9.97;;;4.70;;
33327;SDS011;19692;52.998;9.116;2023-03-11T05:20:32;8.30;;;4.30;;
33327;SDS011;19692;52.998;9.116;2023-03-11T05:22:58;8.53;;;3.83;;
33327;SDS011;19692;52.998;9.116;2023-03-11T05:25:24;7.67;;;4.20;;
33327;SDS011;19692;52.998;9.116;2023-03-11T05:27:50;12.43;;;4.23;;
33327;SDS011;19692;52.998;9.116;2023-03-11T05:30:16;11.47;;;4.43;;
33327;SDS011;19692;52.998;9.116;2023-03-11T05:32:41;6.43;;;4.40;;
33327;SDS011;19692;52.998;9.116;2023-03-11T05:35:07;7.60;;;4.17;;
33327;SDS011;19692;52.998;9.116;2023-03-11T05:37:33;9.63;;;4.27;;
33327;SDS011;19692;52.998;9.116;2023-03-11T05:40:00;9.97;;;4.20;;
33327;SDS011;19692;52.998;9.116;2023-03-11T05:42:25;13.37;;;4.70;;
33327;SDS011;19692;52.998;9.116;2023-03-11T05:44:51;10.37;;;4.37;;
33327;SDS011;19692;52.998;9.116;2023-03-11T05:47:17;7.60;;;4.17;;
33327;SDS011;19692;52.998;9.116;2023-03-11T05:49:43;6.10;;;4.03;;
33327;SDS011;19692;52.998;9.116;2023-03-11T05:52:12;7.17;;;4.03;;
33327;SDS011;19692;52.998;9.116;2023-03-11T05:54:38;8.37;;;4.70;;
33327;SDS011;19692;52.998;9.116;2023-03-11T05:57:04;11.43;;;4.90;;
33327;SDS011;19692;52.998;9.116;2023-03-11T05:59:30;9.17;;;4.67;;
33327;SDS011;19692;52.998;9.116;2023-03-11T06:01:57;6.23;;;4.23;;
33327;SDS011;19692;52.998;9.116;2023-03-11T06:04:22;9.63;;;4.57;;
33327;SDS011;19692;52.998;9.116;2023-03-11T06:06:48;13.63;;;5.80;;
33327;SDS011;19692;52.998;9.116;2023-03-11T06:09:14;13.70;;;4.90;;
33327;SDS011;19692;52.998;9.116;2023-03-11T06:11:40;11.20;;;5.10;;
33327;SDS011;19692;52.998;9.116;2023-03-11T06:14:09;12.03;;;4.77;;
33327;SDS011;19692;52.998;9.116;2023-03-11T06:16:37;14.23;;;4.53;;
33327;SDS011;19692;52.998;9.116;2023-03-11T06:19:04;9.90;;;3.73;;
33327;SDS011;19692;52.998;9.116;2023-03-11T06:21:30;7.03;;;3.40;;
33327;SDS011;19692;52.998;9.116;2023-03-11T06:23:56;6.97;;;2.87;;
33327;SDS011;19692;52.998;9.116;2023-03-11T06:26:22;5.03;;;2.93;;
33327;SDS011;19692;52.998;9.116;2023-03-11T06:28:49;12.27;;;5.50;;
33327;SDS011;19692;52.998;9.116;2023-03-11T06:31:17;8.23;;;3.10;;
33327;SDS011;19692;52.998;9.116;2023-03-11T06:33:49;15.57;;;3.03;;
33327;SDS011;19692;52.998;9.116;2023-03-11T06:36:16;7.27;;;3.40;;
33327;SDS011;19692;52.998;9.116;2023-03-11T06:38:45;8.50;;;3.23;;
33327;SDS011;19692;52.998;9.116;2023-03-11T06:41:12;7.03;;;3.00;;
33327;SDS011;19692;52.998;9.116;2023-03-11T06:43:38;8.13;;;3.23;;
33327;SDS011;19692;52.998;9.116;2023-03-11T06:46:11;10.10;;;3.07;;
33327;SDS011;19692;52.998;9.116;2023-03-11T06:48:40;7.33;;;3.27;;
33327;SDS011;19692;52.998;9.116;2023-03-11T06:51:06;5.50;;;3.23;;
33327;SDS011;19692;52.998;9.116;2023-03-11T06:53:33;7.63;;;3.27;;
33327;SDS011;19692;52.998;9.116;2023-03-11T06:56:06;8.83;;;3.23;;
33327;SDS011;19692;52.998;9.116;2023-03-11T06:58:35;13.43;;;6.23;;
33327;SDS011;19692;52.998;9.116;2023-03-11T07:01:05;7.73;;;3.90;;
33327;SDS011;19692;52.998;9.116;2023-03-11T07:03:34;10.63;;;4.13;;
33327;SDS011;19692;52.998;9.116;2023-03-11T07:06:00;8.87;;;4.07;;
33327;SDS011;19692;52.998;9.116;2023-03-11T07:08:25;11.30;;;3.40;;
33327;SDS011;19692;52.998;9.116;2023-03-11T07:13:43;8.37;;;3.70;;
33327;SDS011;19692;52.998;9.116;2023-03-11T07:16:11;12.57;;;4.80;;
33327;SDS011;19692;52.998;9.116;2023-03-11T07:18:40;10.40;;;3.50;;
33327;SDS011;19692;52.998;9.116;2023-03-11T07:21:07;11.23;;;4.00;;
33327;SDS011;19692;52.998;9.116;2023-03-11T07:23:33;8.77;;;3.70;;
33327;SDS011;19692;52.998;9.116;2023-03-11T07:26:00;8.83;;;3.60;;
33327;SDS011;19692;52.998;9.116;2023-03-11T07:28:26;8.13;;;3.30;;
33327;SDS011;19692;52.998;9.116;2023-03-11T07:30:53;9.30;;;3.67;;
33327;SDS011;19692;52.998;9.116;2023-03-11T07:33:19;6.63;;;2.90;;
33327;SDS011;19692;52.998;9.116;2023-03-11T07:35:47;9.93;;;3.37;;
33327;SDS011;19692;52.998;9.116;2023-03-11T07:38:14;9.30;;;2.97;;
33327;SDS011;19692;52.998;9.116;2023-03-11T07:40:42;5.90;;;3.30;;
33327;SDS011;19692;52.998;9.116;2023-03-11T07:43:08;7.00;;;3.37;;
33327;SDS011;19692;52.998;9.116;2023-03-11T07:45:35;8.83;;;3.27;;
33327;SDS011;19692;52.998;9.116;2023-03-11T07:48:00;7.30;;;3.30;;
33327;SDS011;19692;52.998;9.116;2023-03-11T07:50:26;5.93;;;2.93;;
33327;SDS011;19692;52.998;9.116;2023-03-11T07:52:52;7.73;;;3.77;;
33327;SDS011;19692;52.998;9.116;2023-03-11T07:55:18;4.80;;;3.60;;
33327;SDS011;19692;52.998;9.116;2023-03-11T07:57:45;6.23;;;3.50;;
33327;SDS011;19692;52.998;9.116;2023-03-11T08:00:13;10.00;;;3.20;;
33327;SDS011;19692;52.998;9.116;2023-03-11T08:02:40;4.97;;;3.80;;
33327;SDS011;19692;52.998;9.116;2023-03-11T08:05:05;11.57;;;3.37;;
33327;SDS011;19692;52.998;9.116;2023-03-11T08:07:32;9.33;;;3.50;;
33327;SDS011;19692;52.998;9.116;2023-03-11T08:09:58;6.80;;;3.53;;
33327;SDS011;19692;52.998;9.116;2023-03-11T08:12:23;7.40;;;3.40;;
33327;SDS011;19692;52.998;9.116;2023-03-11T08:14:49;7.70;;;3.50;;
33327;SDS011;19692;52.998;9.116;2023-03-11T08:17:15;4.90;;;2.80;;
33327;SDS011;19692;52.998;9.116;2023-03-11T08:19:41;6.53;;;3.23;;
33327;SDS011;19692;52.998;9.116;2023-03-11T08:22:07;7.27;;;2.93;;
33327;SDS011;19692;52.998;9.116;2023-03-11T08:24:32;6.23;;;3.40;;
33327;SDS011;19692;52.998;9.116;2023-03-11T08:26:58;4.80;;;2.40;;
33327;SDS011;19692;52.998;9.116;2023-03-11T08:29:24;5.43;;;2.90;;
33327;SDS011;19692;52.998;9.116;2023-03-11T08:31:50;10.43;;;3.67;;
33327;SDS011;19692;52.998;9.116;2023-03-11T08:34:16;10.20;;;3.30;;
33327;SDS011;19692;52.998;9.116;2023-03-11T08:36:42;6.80;;;3.10;;
33327;SDS011;19692;52.998;9.116;2023-03-11T08:39:08;8.07;;;3.30;;
33327;SDS011;19692;52.998;9.116;2023-03-11T08:41:34;6.93;;;3.20;;
33327;SDS011;19692;52.998;9.116;2023-03-11T08:43:59;6.27;;;2.93;;
33327;SDS011;19692;52.998;9.116;2023-03-11T08:46:27;5.63;;;3.13;;
33327;SDS011;19692;52.998;9.116;2023-03-11T08:48:59;6.33;;;3.30;;
33327;SDS011;19692;52.998;9.116;2023-03-11T08:51:26;7.10;;;3.10;;
33327;SDS011;19692;52.998;9.116;2023-03-11T08:53:52;8.70;;;3.80;;
33327;SDS011;19692;52.998;9.116;2023-03-11T08:56:18;10.43;;;3.30;;
33327;SDS011;19692;52.998;9.116;2023-03-11T08:58:45;8.33;;;2.80;;
33327;SDS011;19692;52.998;9.116;2023-03-11T09:01:11;5.47;;;2.90;;
33327;SDS011;19692;52.998;9.116;2023-03-11T09:03:38;9.87;;;3.17;;
33327;SDS011;19692;52.998;9.116;2023-03-11T09:06:06;9.77;;;3.10;;
33327;SDS011;19692;52.998;9.116;2023-03-11T09:08:35;8.37;;;2.90;;
33327;SDS011;19692;52.998;9.116;2023-03-11T09:11:01;8.83;;;3.07;;
33327;SDS011;19692;52.998;9.116;2023-03-11T09:13:27;6.70;;;3.00;;
33327;SDS011;19692;52.998;9.116;2023-03-11T09:15:53;6.87;;;2.67;;
33327;SDS011;19692;52.998;9.116;2023-03-11T09:18:19;5.50;;;2.70;;
33327;SDS011;19692;52.998;9.116;2023-03-11T09:20:45;4.23;;;2.70;;
33327;SDS011;19692;52.998;9.116;2023-03-11T09:23:11;5.93;;;3.17;;
33327;SDS011;19692;52.998;9.116;2023-03-11T09:25:40;5.00;;;2.80;;
33327;SDS011;19692;52.998;9.116;2023-03-11T09:28:05;5.97;;;2.87;;
33327;SDS011;19692;52.998;9.116;2023-03-11T09:30:31;5.17;;;2.97;;
33327;SDS011;19692;52.998;9.116;2023-03-11T09:32:57;8.50;;;3.10;;
33327;SDS011;19692;52.998;9.116;2023-03-11T09:35:23;7.63;;;3.10;;
33327;SDS011;19692;52.998;9.116;2023-03-11T09:37:49;4.17;;;2.63;;
33327;SDS011;19692;52.998;9.116;2023-03-11T09:40:16;5.43;;;2.93;;
33327;SDS011;19692;52.998;9.116;2023-03-11T09:42:49;15.17;;;3.37;;
33327;SDS011;19692;52.998;9.116;2023-03-11T09:45:33;4.47;;;2.63;;
33327;SDS011;19692;52.998;9.116;2023-03-11T09:51:15;5.67;;;2.60;;
33327;SDS011;19692;52.998;9.116;2023-03-11T09:53:57;5.03;;;2.43;;
33327;SDS011;19692;52.998;9.116;2023-03-11T09:56:28;4.07;;;2.50;;
33327;SDS011;19692;52.998;9.116;2023-03-11T09:58:57;5.90;;;2.47;;
33327;SDS011;19692;52.998;9.116;2023-03-11T10:01:28;4.30;;;2.57;;
33327;SDS011;19692;52.998;9.116;2023-03-11T10:04:09;7.00;;;3.13;;
33327;SDS011;19692;52.998;9.116;2023-03-11T10:06:44;5.43;;;3.27;;
33327;SDS011;19692;52.998;9.116;2023-03-11T10:09:24;7.23;;;3.00;;
33327;SDS011;19692;52.998;9.116;2023-03-11T10:15:02;7.57;;;3.03;;
33327;SDS011;19692;52.998;9.116;2023-03-11T10:26:45;7.80;;;2.63;;
33327;SDS011;19692;52.998;9.116;2023-03-11T10:29:24;4.83;;;2.27;;
33327;SDS011;19692;52.998;9.116;2023-03-11T10:32:00;8.00;;;2.70;;
33327;SDS011;19692;52.998;9.116;2023-03-11T10:34:47;8.20;;;3.90;;
33327;SDS011;19692;52.998;9.116;2023-03-11T10:37:32;7.03;;;3.03;;
33327;SDS011;19692;52.998;9.116;2023-03-11T10:40:07;5.57;;;3.80;;
33327;SDS011;19692;52.998;9.116;2023-03-11T10:42:46;4.97;;;2.57;;
33327;SDS011;19692;52.998;9.116;2023-03-11T10:45:12;3.97;;;2.60;;
33327;SDS011;19692;52.998;9.116;2023-03-11T10:47:38;7.77;;;3.17;;
33327;SDS011;19692;52.998;9.116;2023-03-11T10:50:04;5.90;;;2.63;;
33327;SDS011;19692;52.998;9.116;2023-03-11T10:52:33;4.93;;;2.40;;
33327;SDS011;19692;52.998;9.116;2023-03-11T10:55:28;7.70;;;2.80;;
33327;SDS011;19692;52.998;9.116;2023-03-11T10:58:02;6.57;;;2.43;;
33327;SDS011;19692;52.998;9.116;2023-03-11T11:00:36;7.10;;;2.73;;
33327;SDS011;19692;52.998;9.116;2023-03-11T11:03:02;5.40;;;2.90;;
33327;SDS011;19692;52.998;9.116;2023-03-11T11:05:31;7.53;;;2.70;;
33327;SDS011;19692;52.998;9.116;2023-03-11T11:08:11;5.00;;;2.40;;
33327;SDS011;19692;52.998;9.116;2023-03-11T11:10:51;4.93;;;2.63;;
33327;SDS011;19692;52.998;9.116;2023-03-11T11:13:23;4.77;;;2.60;;
33327;SDS011;19692;52.998;9.116;2023-03-11T11:15:52;5.00;;;2.53;;
33327;SDS011;19692;52.998;9.116;2023-03-11T11:18:34;5.47;;;2.83;;
33327;SDS011;19692;52.998;9.116;2023-03-11T11:21:12;5.30;;;2.40;;
33327;SDS011;19692;52.998;9.116;2023-03-11T11:24:02;5.27;;;2.33;;
33327;SDS011;19692;52.998;9.116;2023-03-11T11:27:06;5.67;;;2.40;;
33327;SDS011;19692;52.998;9.116;2023-03-11T11:29:47;6.83;;;2.70;;
33327;SDS011;19692;52.998;9.116;2023-03-11T11:32:36;6.43;;;2.87;;
33327;SDS011;19692;52.998;9.116;2023-03-11T11:35:08;4.63;;;2.80;;
33327;SDS011;19692;52.998;9.116;2023-03-11T11:37:45;3.23;;;2.60;;
33327;SDS011;19692;52.998;9.116;2023-03-11T11:40:26;4.03;;;2.40;;
33327;SDS011;19692;52.998;9.116;2023-03-11T11:42:59;6.87;;;3.67;;
33327;SDS011;19692;52.998;9.116;2023-03-11T11:48:26;5.70;;;3.80;;
33327;SDS011;19692;52.998;9.116;2023-03-11T11:51:07;6.40;;;3.27;;
33327;SDS011;19692;52.998;9.116;2023-03-11T11:53:54;5.13;;;2.47;;
33327;SDS011;19692;52.998;9.116;2023-03-11T11:56:33;8.07;;;3.20;;
33327;SDS011;19692;52.998;9.116;2023-03-11T11:58:59;4.30;;;2.87;;
33327;SDS011;19692;52.998;9.116;2023-03-11T12:04:24;4.60;;;3.23;;
33327;SDS011;19692;52.998;9.116;2023-03-11T12:07:17;6.03;;;3.03;;
33327;SDS011;19692;52.998;9.116;2023-03-11T12:10:11;3.13;;;2.30;;
33327;SDS011;19692;52.998;9.116;2023-03-11T12:18:49;4.50;;;2.70;;
33327;SDS011;19692;52.998;9.116;2023-03-11T12:21:45;10.60;;;2.60;;
33327;SDS011;19692;52.998;9.116;2023-03-11T12:24:29;6.20;;;3.83;;
33327;SDS011;19692;52.998;9.116;2023-03-11T12:27:19;6.17;;;2.60;;
33327;SDS011;19692;52.998;9.116;2023-03-11T12:29:48;6.80;;;3.23;;
33327;SDS011;19692;52.998;9.116;2023-03-11T12:32:25;5.60;;;3.30;;
33327;SDS011;19692;52.998;9.116;2023-03-11T12:35:02;5.03;;;2.60;;
33327;SDS011;19692;52.998;9.116;2023-03-11T12:38:26;7.70;;;2.47;;
33327;SDS011;19692;52.998;9.116;2023-03-11T12:40:58;6.50;;;2.63;;
33327;SDS011;19692;52.998;9.116;2023-03-11T12:45:59;4.57;;;2.57;;
33327;SDS011;19692;52.998;9.116;2023-03-11T12:48:42;4.13;;;2.10;;
33327;SDS011;19692;52.998;9.116;2023-03-11T12:53:51;8.77;;;2.53;;
33327;SDS011;19692;52.998;9.116;2023-03-11T13:01:33;5.23;;;2.70;;
33327;SDS011;19692;52.998;9.116;2023-03-11T13:04:38;6.00;;;2.67;;
33327;SDS011;19692;52.998;9.116;2023-03-11T13:07:36;6.67;;;2.50;;
33327;SDS011;19692;52.998;9.116;2023-03-11T13:12:58;5.10;;;2.03;;
33327;SDS011;19692;52.998;9.116;2023-03-11T13:15:25;5.17;;;2.20;;
33327;SDS011;19692;52.998;9.116;2023-03-11T13:25:40;5.97;;;2.33;;
33327;SDS011;19692;52.998;9.116;2023-03-11T13:34:14;5.87;;;2.20;;
33327;SDS011;19692;52.998;9.116;2023-03-11T13:37:14;7.60;;;2.00;;
33327;SDS011;19692;52.998;9.116;2023-03-11T13:43:02;4.70;;;2.17;;
33327;SDS011;19692;52.998;9.116;2023-03-11T13:45:36;4.67;;;3.20;;
33327;SDS011;19692;52.998;9.116;2023-03-11T13:48:13;9.03;;;2.10;;
33327;SDS011;19692;52.998;9.116;2023-03-11T13:51:19;5.10;;;2.13;;
33327;SDS011;19692;52.998;9.116;2023-03-11T13:54:03;5.13;;;1.93;;
33327;SDS011;19692;52.998;9.116;2023-03-11T13:56:59;5.07;;;2.10;;
33327;SDS011;19692;52.998;9.116;2023-03-11T13:59:27;4.33;;;2.20;;
33327;SDS011;19692;52.998;9.116;2023-03-11T14:02:15;5.67;;;2.30;;
33327;SDS011;19692;52.998;9.116;2023-03-11T14:04:48;4.83;;;2.00;;
33327;SDS011;19692;52.998;9.116;2023-03-11T14:10:08;4.50;;;1.80;;
33327;SDS011;19692;52.998;9.116;2023-03-11T14:13:13;3.10;;;2.00;;
33327;SDS011;19692;52.998;9.116;2023-03-11T14:15:52;5.17;;;2.00;;
33327;SDS011;19692;52.998;9.116;2023-03-11T14:18:40;8.57;;;2.23;;
33327;SDS011;19692;52.998;9.116;2023-03-11T14:21:11;3.07;;;2.73;;
33327;SDS011;19692;52.998;9.116;2023-03-11T14:23:44;3.10;;;1.70;;
33327;SDS011;19692;52.998;9.116;2023-03-11T14:26:23;3.97;;;3.00;;
33327;SDS011;19692;52.998;9.116;2023-03-11T14:28:57;6.27;;;2.00;;
33327;SDS011;19692;52.998;9.116;2023-03-11T14:31:29;6.30;;;3.27;;
33327;SDS011;19692;52.998;9.116;2023-03-11T14:33:58;3.63;;;2.10;;
33327;SDS011;19692;52.998;9.116;2023-03-11T14:36:47;5.43;;;3.07;;
33327;SDS011;19692;52.998;9.116;2023-03-11T14:50:06;2.97;;;2.10;;
33327;SDS011;19692;52.998;9.116;2023-03-11T14:52:43;6.00;;;2.10;;
33327;SDS011;19692;52.998;9.116;2023-03-11T14:55:15;5.10;;;1.97;;
33327;SDS011;19692;52.998;9.116;2023-03-11T15:00:23;3.73;;;2.50;;
33327;SDS011;19692;52.998;9.116;2023-03-11T15:03:01;6.13;;;2.13;;
33327;SDS011;19692;52.998;9.116;2023-03-11T15:05:53;8.30;;;2.30;;
33327;SDS011;19692;52.998;9.116;2023-03-11T15:08:21;5.80;;;2.10;;
33327;SDS011;19692;52.998;9.116;2023-03-11T15:11:16;8.47;;;1.97;;
33327;SDS011;19692;52.998;9.116;2023-03-11T15:13:39;5.50;;;2.53;;
33327;SDS011;19692;52.998;9.116;2023-03-11T15:16:19;4.47;;;2.30;;
33327;SDS011;19692;52.998;9.116;2023-03-11T15:19:19;5.73;;;2.20;;
33327;SDS011;19692;52.998;9.116;2023-03-11T15:21:57;6.80;;;2.23;;
33327;SDS011;19692;52.998;9.116;2023-03-11T15:24:31;4.33;;;2.60;;
33327;SDS011;19692;52.998;9.116;2023-03-11T15:27:05;5.77;;;2.70;;
33327;SDS011;19692;52.998;9.116;2023-03-11T15:29:45;4.07;;;2.10;;
33327;SDS011;19692;52.998;9.116;2023-03-11T15:32:25;3.93;;;1.93;;
33327;SDS011;19692;52.998;9.116;2023-03-11T15:37:34;4.93;;;2.43;;
33327;SDS011;19692;52.998;9.116;2023-03-11T15:40:10;4.83;;;2.13;;
33327;SDS011;19692;52.998;9.116;2023-03-11T15:42:43;7.40;;;2.70;;
33327;SDS011;19692;52.998;9.116;2023-03-11T15:45:12;5.60;;;2.70;;
33327;SDS011;19692;52.998;9.116;2023-03-11T15:47:46;3.40;;;2.10;;
33327;SDS011;19692;52.998;9.116;2023-03-11T15:50:17;6.70;;;2.67;;
33327;SDS011;19692;52.998;9.116;2023-03-11T15:52:52;5.77;;;2.67;;
33327;SDS011;19692;52.998;9.116;2023-03-11T15:55:20;5.57;;;2.10;;
33327;SDS011;19692;52.998;9.116;2023-03-11T15:57:47;7.97;;;2.40;;
33327;SDS011;19692;52.998;9.116;2023-03-11T16:00:17;3.80;;;2.00;;
33327;SDS011;19692;52.998;9.116;2023-03-11T16:02:47;4.23;;;2.20;;
33327;SDS011;19692;52.998;9.116;2023-03-11T16:05:16;3.57;;;2.00;;
33327;SDS011;19692;52.998;9.116;2023-03-11T16:07:44;4.57;;;2.10;;
33327;SDS011;19692;52.998;9.116;2023-03-11T16:10:11;2.67;;;1.97;;
33327;SDS011;19692;52.998;9.116;2023-03-11T16:12:39;5.70;;;2.33;;
33327;SDS011;19692;52.998;9.116;2023-03-11T16:15:09;4.80;;;2.20;;
33327;SDS011;19692;52.998;9.116;2023-03-11T16:17:58;5.87;;;2.30;;
33327;SDS011;19692;52.998;9.116;2023-03-11T16:20:28;2.77;;;2.20;;
33327;SDS011;19692;52.998;9.116;2023-03-11T16:23:17;5.03;;;2.50;;
33327;SDS011;19692;52.998;9.116;2023-03-11T16:25:46;4.90;;;2.70;;
33327;SDS011;19692;52.998;9.116;2023-03-11T16:28:13;3.27;;;1.87;;
33327;SDS011;19692;52.998;9.116;2023-03-11T16:30:40;5.90;;;2.67;;
33327;SDS011;19692;52.998;9.116;2023-03-11T16:33:06;5.10;;;2.00;;